Time;durP1;ratioP1;P1;durP2;ratioP2;P2;SDS_P1;SDS_P2;PMS_P1;PMS_P2;Temp;Humidity;BMP_temperature;BMP_pressure;BME280_temperature;BME280_humidity;BME280_pressure;Samples;Min_cycle;Max_cycle;Signal;HPM_P1;HPM_P2
2023/05/17 00:02:01;;;;;;;6.43;2.47;;;;;;;;;;5031909;28;20284;-72
2023/05/17 00:04:27;;;;;;;12.88;2.72;;;;;;;;;;5029123;28;20366;-72
2023/05/17 00:06:52;;;;;;;14.35;2.80;;;;;;;;;;5030553;28;20426;-72
2023/05/17 00:09:18;;;;;;;6.22;2.03;;;;;;;;;;5032019;28;20088;-72
2023/05/17 00:11:43;;;;;;;5.25;1.85;;;;;;;;;;5029912;28;20009;-72
2023/05/17 00:14:08;;;;;;;6.00;2.28;;;;;;;;;;5028777;28;20065;-72
2023/05/17 00:16:33;;;;;;;11.67;2.33;;;;;;;;;;5028083;28;20395;-72
2023/05/17 00:18:58;;;;;;;10.48;2.03;;;;;;;;;;5031476;28;20291;-72
2023/05/17 00:21:24;;;;;;;8.37;2.40;;;;;;;;;;5029385;28;20031;-72
2023/05/17 00:23:49;;;;;;;8.43;2.00;;;;;;;;;;5033031;28;20288;-72
2023/05/17 00:26:15;;;;;;;8.98;1.88;;;;;;;;;;5029985;28;20386;-72
2023/05/17 00:28:40;;;;;;;10.35;2.25;;;;;;;;;;5033366;28;20538;-72
2023/05/17 00:31:05;;;;;;;17.13;2.20;;;;;;;;;;5030664;28;20029;-72
2023/05/17 00:33:30;;;;;;;5.50;1.85;;;;;;;;;;5033517;28;20302;-72
2023/05/17 00:35:56;;;;;;;5.90;2.20;;;;;;;;;;5026176;28;20029;-72
2023/05/17 00:38:21;;;;;;;6.53;2.03;;;;;;;;;;5031331;28;20013;-72
2023/05/17 00:40:46;;;;;;;12.60;2.17;;;;;;;;;;5029724;28;20540;-72
2023/05/17 00:43:11;;;;;;;13.43;2.30;;;;;;;;;;5033560;28;20367;-72
2023/05/17 00:45:36;;;;;;;8.80;2.83;;;;;;;;;;5026317;28;20276;-72
2023/05/17 00:48:01;;;;;;;13.10;2.30;;;;;;;;;;5030381;28;20275;-72
2023/05/17 00:50:27;;;;;;;7.03;2.42;;;;;;;;;;5032630;28;20317;-72
2023/05/17 00:52:52;;;;;;;5.82;1.92;;;;;;;;;;5030963;28;20037;-72
2023/05/17 00:55:20;;;;;;;5.68;2.50;;;;;;;;;;5026576;28;20243;-72
2023/05/17 00:57:46;;;;;;;8.10;2.53;;;;;;;;;;5027642;28;20029;-72
2023/05/17 01:00:12;;;;;;;10.57;2.55;;;;;;;;;;5033182;28;20589;-72
2023/05/17 01:02:37;;;;;;;10.18;2.33;;;;;;;;;;5030636;28;20028;-72
2023/05/17 01:05:02;;;;;;;9.63;2.85;;;;;;;;;;5029878;28;20022;-72
2023/05/17 01:07:27;;;;;;;6.55;2.38;;;;;;;;;;5029841;28;20013;-72
2023/05/17 01:09:53;;;;;;;14.55;2.47;;;;;;;;;;5028908;28;20072;-72
2023/05/17 01:12:37;;;;;;;10.02;2.13;;;;;;;;;;5029825;28;20109;-72
2023/05/17 01:15:09;;;;;;;8.10;2.72;;;;;;;;;;5026832;28;21433;-72
2023/05/17 01:17:46;;;;;;;8.63;2.45;;;;;;;;;;5027244;28;20022;-72
2023/05/17 01:20:18;;;;;;;7.90;2.10;;;;;;;;;;5032338;28;20022;-72
2023/05/17 01:22:49;;;;;;;8.10;2.10;;;;;;;;;;5029172;28;20383;-72
2023/05/17 01:25:16;;;;;;;6.35;2.22;;;;;;;;;;5023631;28;20033;-72
2023/05/17 01:27:44;;;;;;;8.23;2.33;;;;;;;;;;5029177;28;20018;-72
2023/05/17 01:30:10;;;;;;;3.83;1.98;;;;;;;;;;5028589;28;20490;-72
2023/05/17 01:32:36;;;;;;;8.00;2.05;;;;;;;;;;5031961;28;20032;-72
2023/05/17 01:35:03;;;;;;;11.65;2.47;;;;;;;;;;5032096;28;20029;-72
2023/05/17 01:37:28;;;;;;;11.50;1.98;;;;;;;;;;5031900;28;20018;-72
2023/05/17 01:39:53;;;;;;;4.10;1.90;;;;;;;;;;5033410;28;20382;-72
2023/05/17 01:42:23;;;;;;;9.80;1.93;;;;;;;;;;5033474;28;20283;-72
2023/05/17 01:45:02;;;;;;;6.65;2.03;;;;;;;;;;5032689;28;20700;-72
2023/05/17 01:47:27;;;;;;;5.82;1.85;;;;;;;;;;5030651;28;20026;-72
2023/05/17 01:49:52;;;;;;;5.75;1.80;;;;;;;;;;5034338;28;20110;-72
2023/05/17 01:52:23;;;;;;;7.75;2.33;;;;;;;;;;5035818;28;20025;-72
2023/05/17 01:54:48;;;;;;;;;;;;;;;;;;5035769;28;20067;-72
2023/05/17 01:57:13;;;;;;;6.28;2.15;;;;;;;;;;5033004;28;19905;-72
2023/05/17 01:59:39;;;;;;;6.70;2.30;;;;;;;;;;5032197;28;20434;-72
2023/05/17 02:02:07;;;;;;;9.77;2.28;;;;;;;;;;5034253;28;20024;-72
2023/05/17 02:04:33;;;;;;;5.25;2.03;;;;;;;;;;5034057;28;20048;-72
2023/05/17 02:06:58;;;;;;;6.50;2.60;;;;;;;;;;5035953;28;20021;-72
2023/05/17 02:09:23;;;;;;;5.57;2.10;;;;;;;;;;5032354;28;20021;-72
2023/05/17 02:11:48;;;;;;;13.97;2.67;;;;;;;;;;5035707;28;20264;-72
2023/05/17 02:14:13;;;;;;;10.03;2.70;;;;;;;;;;5033674;28;20355;-72
2023/05/17 02:16:38;;;;;;;8.50;2.53;;;;;;;;;;5032209;28;20268;-72
2023/05/17 02:19:04;;;;;;;6.03;2.10;;;;;;;;;;5034492;28;20034;-72
2023/05/17 02:21:29;;;;;;;8.25;2.53;;;;;;;;;;5035628;28;20021;-72
2023/05/17 02:23:54;;;;;;;5.93;2.23;;;;;;;;;;5032310;28;20033;-72
2023/05/17 02:26:19;;;;;;;10.38;2.40;;;;;;;;;;5028569;28;20268;-72
2023/05/17 02:28:45;;;;;;;8.10;2.23;;;;;;;;;;5032024;28;20060;-72
2023/05/17 02:31:10;;;;;;;12.43;2.53;;;;;;;;;;5035202;28;20286;-72
2023/05/17 02:33:36;;;;;;;8.98;2.65;;;;;;;;;;5035531;28;20026;-72
2023/05/17 02:36:01;;;;;;;7.05;2.58;;;;;;;;;;5030205;28;20350;-72
2023/05/17 02:38:26;;;;;;;7.60;2.40;;;;;;;;;;5032406;28;20029;-72
2023/05/17 02:40:51;;;;;;;8.87;2.20;;;;;;;;;;5032648;28;20013;-72
2023/05/17 02:43:16;;;;;;;9.43;2.93;;;;;;;;;;5033479;28;20292;-72
2023/05/17 02:45:42;;;;;;;5.90;1.97;;;;;;;;;;5032348;28;20333;-72
2023/05/17 02:48:07;;;;;;;9.65;2.30;;;;;;;;;;5032176;28;20257;-72
2023/05/17 02:50:32;;;;;;;5.38;2.50;;;;;;;;;;5034041;28;20079;-72
2023/05/17 02:52:57;;;;;;;4.30;1.93;;;;;;;;;;5032673;28;20025;-72
2023/05/17 02:55:23;;;;;;;8.17;2.23;;;;;;;;;;5029995;28;20272;-72
2023/05/17 02:57:48;;;;;;;7.45;2.17;;;;;;;;;;5032300;28;20329;-72
2023/05/17 03:00:13;;;;;;;7.30;2.37;;;;;;;;;;5034204;28;20021;-72
2023/05/17 03:02:39;;;;;;;7.53;1.80;;;;;;;;;;5032128;28;20375;-72
2023/05/17 03:05:04;;;;;;;6.90;2.33;;;;;;;;;;5029085;28;20042;-72
2023/05/17 03:07:29;;;;;;;4.65;2.17;;;;;;;;;;5031992;28;20028;-71
2023/05/17 03:09:54;;;;;;;5.90;2.13;;;;;;;;;;5027884;28;20021;-72
2023/05/17 03:12:19;;;;;;;4.53;1.98;;;;;;;;;;5031859;28;20428;-72
2023/05/17 03:14:45;;;;;;;7.93;2.43;;;;;;;;;;5028981;28;20033;-72
2023/05/17 03:17:10;;;;;;;6.57;2.03;;;;;;;;;;5031302;28;20252;-72
2023/05/17 03:19:35;;;;;;;8.10;1.98;;;;;;;;;;5030359;28;20272;-72
2023/05/17 03:22:01;;;;;;;4.93;2.03;;;;;;;;;;5033237;28;20021;-72
2023/05/17 03:24:26;;;;;;;3.30;2.03;;;;;;;;;;5032988;28;20296;-72
2023/05/17 03:26:51;;;;;;;17.45;2.85;;;;;;;;;;5030930;28;20792;-72
2023/05/17 03:29:16;;;;;;;6.03;2.23;;;;;;;;;;5030933;28;20032;-72
2023/05/17 03:31:41;;;;;;;12.10;2.77;;;;;;;;;;5032207;28;20780;-72
2023/05/17 03:34:06;;;;;;;4.90;1.77;;;;;;;;;;5030580;28;20394;-72
2023/05/17 03:36:33;;;;;;;4.93;1.77;;;;;;;;;;5031036;28;20780;-72
2023/05/17 03:38:58;;;;;;;10.18;2.60;;;;;;;;;;5030408;28;20279;-72
2023/05/17 03:41:23;;;;;;;4.17;2.00;;;;;;;;;;5030038;28;20032;-72
2023/05/17 03:43:48;;;;;;;6.93;1.98;;;;;;;;;;5030480;28;20788;-72
2023/05/17 03:46:13;;;;;;;8.77;2.58;;;;;;;;;;5030120;28;20025;-72
2023/05/17 03:48:38;;;;;;;13.33;2.50;;;;;;;;;;5031136;28;20032;-72
2023/05/17 03:51:04;;;;;;;9.63;2.20;;;;;;;;;;5029273;28;20696;-72
2023/05/17 03:53:29;;;;;;;7.32;2.55;;;;;;;;;;5031326;28;20327;-72
2023/05/17 03:55:55;;;;;;;7.22;2.70;;;;;;;;;;5026304;28;20474;-72
2023/05/17 03:58:20;;;;;;;6.10;2.60;;;;;;;;;;5030853;28;20104;-72
2023/05/17 04:00:45;;;;;;;9.57;2.40;;;;;;;;;;5029457;28;20543;-72
2023/05/17 04:03:11;;;;;;;7.20;2.38;;;;;;;;;;5030729;28;20326;-72
2023/05/17 04:05:37;;;;;;;8.90;2.60;;;;;;;;;;5028938;28;20552;-72
2023/05/17 04:08:03;;;;;;;8.05;3.30;;;;;;;;;;5030657;28;20375;-72
2023/05/17 04:10:28;;;;;;;8.63;3.03;;;;;;;;;;5031132;28;20253;-72
2023/05/17 04:12:53;;;;;;;12.50;2.72;;;;;;;;;;5030651;28;20025;-72
2023/05/17 04:15:18;;;;;;;12.32;2.80;;;;;;;;;;5032271;28;20057;-72
2023/05/17 04:17:44;;;;;;;12.32;3.10;;;;;;;;;;5029656;28;20421;-72
2023/05/17 04:20:09;;;;;;;5.20;2.35;;;;;;;;;;5034907;28;20072;-72
2023/05/17 04:22:35;;;;;;;14.75;3.75;;;;;;;;;;5030033;28;20029;-72
2023/05/17 04:25:00;;;;;;;14.13;5.37;;;;;;;;;;5028280;28;20021;-72
2023/05/17 04:27:25;;;;;;;7.25;2.88;;;;;;;;;;5032776;28;20280;-72
2023/05/17 04:29:51;;;;;;;7.50;3.45;;;;;;;;;;5028926;28;20006;-72
2023/05/17 04:32:17;;;;;;;14.63;4.03;;;;;;;;;;5030876;28;20359;-72
2023/05/17 04:34:43;;;;;;;17.92;3.45;;;;;;;;;;5031443;28;20139;-72
2023/05/17 04:37:08;;;;;;;8.20;3.72;;;;;;;;;;5025702;28;20112;-72
2023/05/17 04:39:33;;;;;;;7.00;3.70;;;;;;;;;;5023515;28;20014;-72
2023/05/17 04:41:58;;;;;;;10.52;3.95;;;;;;;;;;5027900;28;20284;-72
2023/05/17 04:44:24;;;;;;;16.13;3.63;;;;;;;;;;5027476;28;20064;-72
2023/05/17 04:46:49;;;;;;;15.05;5.70;;;;;;;;;;5028853;28;20429;-72
2023/05/17 04:49:14;;;;;;;21.90;6.00;;;;;;;;;;5022395;28;20148;-72
2023/05/17 04:51:39;;;;;;;15.45;6.10;;;;;;;;;;5025044;28;20283;-72
2023/05/17 04:54:07;;;;;;;20.70;6.25;;;;;;;;;;5026703;28;20071;-72
2023/05/17 04:56:33;;;;;;;19.92;6.65;;;;;;;;;;5026026;28;20514;-72
2023/05/17 04:58:58;;;;;;;16.08;7.97;;;;;;;;;;5030476;28;20051;-72
2023/05/17 05:01:23;;;;;;;19.50;6.05;;;;;;;;;;5030315;28;20287;-72
2023/05/17 05:03:49;;;;;;;18.20;7.07;;;;;;;;;;5029233;28;20105;-72
2023/05/17 05:06:15;;;;;;;22.80;5.90;;;;;;;;;;5033841;28;20021;-72
2023/05/17 05:08:40;;;;;;;23.35;6.68;;;;;;;;;;5037918;28;20536;-72
2023/05/17 05:11:05;;;;;;;15.68;5.72;;;;;;;;;;5034415;28;20017;-72
2023/05/17 05:13:31;;;;;;;18.88;5.50;;;;;;;;;;5037684;28;20028;-72
2023/05/17 05:15:56;;;;;;;24.10;5.90;;;;;;;;;;5035000;28;20033;-72
2023/05/17 05:18:21;;;;;;;17.42;5.85;;;;;;;;;;5035921;28;20258;-72
2023/05/17 05:20:47;;;;;;;17.67;6.63;;;;;;;;;;5034735;28;20096;-72
2023/05/17 05:23:12;;;;;;;26.38;7.63;;;;;;;;;;5033049;28;20287;-72
2023/05/17 05:25:37;;;;;;;22.33;7.87;;;;;;;;;;5032372;28;20370;-72
2023/05/17 05:28:03;;;;;;;23.70;8.20;;;;;;;;;;5032317;28;20293;-72
2023/05/17 05:30:28;;;;;;;28.00;8.45;;;;;;;;;;5033618;28;20279;-72
2023/05/17 05:32:53;;;;;;;25.30;8.05;;;;;;;;;;5032672;28;20026;-72
2023/05/17 05:35:18;;;;;;;27.48;8.85;;;;;;;;;;5033752;28;20033;-72
2023/05/17 05:37:44;;;;;;;35.60;10.70;;;;;;;;;;5035418;28;20021;-72
2023/05/17 05:40:09;;;;;;;21.13;9.07;;;;;;;;;;5035038;28;20025;-72
2023/05/17 05:42:35;;;;;;;27.50;9.38;;;;;;;;;;5036308;28;20021;-72
2023/05/17 05:45:00;;;;;;;27.52;8.63;;;;;;;;;;5034190;28;20051;-72
2023/05/17 05:47:25;;;;;;;28.42;9.57;;;;;;;;;;5030013;28;20040;-72
2023/05/17 05:49:50;;;;;;;27.38;10.68;;;;;;;;;;5032023;28;20017;-72
2023/05/17 05:52:15;;;;;;;33.40;9.98;;;;;;;;;;5031766;28;20059;-72
2023/05/17 05:54:41;;;;;;;44.13;10.63;;;;;;;;;;5031198;28;20057;-72
2023/05/17 05:57:06;;;;;;;28.20;11.10;;;;;;;;;;5024746;28;20483;-72
2023/05/17 05:59:31;;;;;;;33.03;11.47;;;;;;;;;;5030172;28;20335;-72
2023/05/17 06:01:56;;;;;;;38.73;11.67;;;;;;;;;;5033440;28;20646;-72
2023/05/17 06:04:22;;;;;;;28.33;11.70;;;;;;;;;;5035572;28;20542;-72
2023/05/17 06:06:47;;;;;;;40.83;14.43;;;;;;;;;;5031379;28;20017;-72
2023/05/17 06:09:12;;;;;;;41.97;15.23;;;;;;;;;;5032450;28;20009;-72
2023/05/17 06:11:38;;;;;;;42.33;15.95;;;;;;;;;;5029863;28;20411;-72
2023/05/17 06:14:03;;;;;;;43.78;15.00;;;;;;;;;;5033799;28;20045;-72
2023/05/17 06:16:28;;;;;;;43.83;15.53;;;;;;;;;;5035028;28;20108;-72
2023/05/17 06:18:53;;;;;;;49.23;15.30;;;;;;;;;;5034956;28;20276;-72
2023/05/17 06:21:18;;;;;;;49.58;16.13;;;;;;;;;;5031061;28;20284;-72
2023/05/17 06:23:44;;;;;;;44.83;16.93;;;;;;;;;;5025975;28;20061;-72
2023/05/17 06:26:10;;;;;;;46.15;15.27;;;;;;;;;;5028546;28;20272;-72
2023/05/17 06:28:35;;;;;;;38.88;16.08;;;;;;;;;;5031328;28;20025;-72
2023/05/17 06:31:00;;;;;;;32.70;14.55;;;;;;;;;;5030570;28;20028;-72
2023/05/17 06:33:25;;;;;;;42.80;15.17;;;;;;;;;;5033050;28;20068;-72
2023/05/17 06:35:51;;;;;;;35.57;15.27;;;;;;;;;;5025664;28;20310;-72
2023/05/17 06:38:16;;;;;;;42.38;14.85;;;;;;;;;;5018691;28;20277;-72
2023/05/17 06:40:41;;;;;;;32.95;14.82;;;;;;;;;;5018965;28;20021;-72
2023/05/17 06:43:06;;;;;;;39.87;14.83;;;;;;;;;;5021970;28;20037;-72
2023/05/17 06:45:31;;;;;;;34.80;14.70;;;;;;;;;;5016987;28;20275;-72
2023/05/17 06:47:56;;;;;;;35.70;12.93;;;;;;;;;;5013268;28;20284;-72
2023/05/17 06:50:22;;;;;;;32.10;14.23;;;;;;;;;;5016006;28;20276;-72
2023/05/17 06:52:47;;;;;;;40.47;13.67;;;;;;;;;;5026697;28;20368;-72
2023/05/17 06:55:12;;;;;;;41.63;13.10;;;;;;;;;;5025910;28;20391;-72
2023/05/17 06:57:37;;;;;;;33.10;13.98;;;;;;;;;;5021514;28;20294;-72
2023/05/17 07:00:05;;;;;;;37.20;13.53;;;;;;;;;;5024680;28;20110;-72
2023/05/17 07:02:31;;;;;;;35.15;12.40;;;;;;;;;;5018691;28;20302;-71
2023/05/17 07:04:56;;;;;;;29.92;12.07;;;;;;;;;;5010259;28;20182;-72
2023/05/17 07:07:22;;;;;;;31.08;11.35;;;;;;;;;;5010131;28;20105;-72
2023/05/17 07:09:47;;;;;;;32.17;11.27;;;;;;;;;;5024855;28;20057;-72
2023/05/17 07:12:12;;;;;;;28.95;10.70;;;;;;;;;;5027694;28;20275;-72
2023/05/17 07:14:37;;;;;;;23.97;9.50;;;;;;;;;;5013881;28;20026;-72
2023/05/17 07:17:02;;;;;;;31.60;10.27;;;;;;;;;;5011068;28;20268;-71
2023/05/17 07:19:28;;;;;;;27.60;8.27;;;;;;;;;;5013468;28;20271;-71
2023/05/17 07:21:53;;;;;;;21.52;6.07;;;;;;;;;;5012014;28;20017;-71
2023/05/17 07:24:18;;;;;;;15.85;5.28;;;;;;;;;;5025189;28;20098;-71
2023/05/17 07:26:44;;;;;;;16.93;4.77;;;;;;;;;;5007955;28;20025;-71
2023/05/17 07:29:09;;;;;;;18.60;4.40;;;;;;;;;;5009493;28;20794;-72
2023/05/17 07:31:34;;;;;;;10.30;3.53;;;;;;;;;;5009624;28;20215;-72
2023/05/17 07:33:59;;;;;;;8.60;2.50;;;;;;;;;;5005902;28;20127;-72
2023/05/17 07:36:29;;;;;;;13.38;2.72;;;;;;;;;;5022770;28;20167;-72
2023/05/17 07:38:54;;;;;;;13.13;2.43;;;;;;;;;;5014190;28;20553;-71
2023/05/17 07:41:22;;;;;;;13.63;2.72;;;;;;;;;;5009687;28;20018;-71
2023/05/17 07:43:47;;;;;;;14.90;2.88;;;;;;;;;;5027145;28;20024;-72
2023/05/17 07:46:12;;;;;;;11.30;2.60;;;;;;;;;;5026021;28;20025;-71
2023/05/17 07:48:37;;;;;;;15.23;2.30;;;;;;;;;;5012997;28;20024;-71
2023/05/17 07:51:02;;;;;;;17.27;2.57;;;;;;;;;;5017445;28;20026;-71
2023/05/17 07:53:28;;;;;;;9.60;2.00;;;;;;;;;;5018871;28;20033;-70
2023/05/17 07:55:53;;;;;;;15.77;2.70;;;;;;;;;;5027551;28;20026;-71
2023/05/17 07:58:18;;;;;;;11.77;2.38;;;;;;;;;;5017330;28;20542;-71
2023/05/17 08:00:43;;;;;;;16.03;2.80;;;;;;;;;;5021864;28;20458;-70
2023/05/17 08:03:08;;;;;;;15.40;2.63;;;;;;;;;;5020781;28;20033;-70
2023/05/17 08:05:33;;;;;;;15.93;2.17;;;;;;;;;;5024318;28;20026;-70
2023/05/17 08:07:59;;;;;;;13.43;2.40;;;;;;;;;;5009994;28;20040;-71
2023/05/17 08:10:25;;;;;;;14.45;3.08;;;;;;;;;;5009456;28;20026;-70
2023/05/17 08:12:50;;;;;;;9.63;1.60;;;;;;;;;;5014595;28;20036;-70
2023/05/17 08:15:15;;;;;;;11.23;3.17;;;;;;;;;;5011379;28;20021;-70
2023/05/17 08:17:41;;;;;;;10.30;2.20;;;;;;;;;;5025873;28;20772;-70
2023/05/17 08:20:06;;;;;;;10.85;1.95;;;;;;;;;;5014665;28;20180;-70
2023/05/17 08:22:31;;;;;;;9.48;2.13;;;;;;;;;;5009099;28;20059;-70
2023/05/17 08:24:57;;;;;;;16.33;2.73;;;;;;;;;;5008497;28;20014;-70
2023/05/17 08:27:23;;;;;;;12.20;2.33;;;;;;;;;;5024812;28;20330;-71
2023/05/17 08:29:48;;;;;;;10.18;2.20;;;;;;;;;;5025926;28;21375;-70
2023/05/17 08:32:13;;;;;;;14.90;2.93;;;;;;;;;;5023667;28;20124;-70
2023/05/17 08:34:38;;;;;;;8.90;1.80;;;;;;;;;;5006436;28;20757;-70
2023/05/17 08:37:04;;;;;;;12.27;2.28;;;;;;;;;;5024493;28;20286;-70
2023/05/17 08:39:30;;;;;;;10.07;2.40;;;;;;;;;;5014022;28;20179;-70
2023/05/17 08:41:58;;;;;;;13.40;2.15;;;;;;;;;;5008094;28;20273;-71
2023/05/17 08:44:23;;;;;;;8.50;1.63;;;;;;;;;;5009044;28;20080;-70
2023/05/17 08:46:52;;;;;;;8.27;1.77;;;;;;;;;;5007297;28;20026;-70
2023/05/17 08:49:20;;;;;;;9.63;2.03;;;;;;;;;;5011040;28;20024;-70
2023/05/17 08:51:47;;;;;;;8.75;2.15;;;;;;;;;;5017607;28;20037;-71
2023/05/17 08:54:13;;;;;;;17.35;2.90;;;;;;;;;;5009292;28;20036;-70
2023/05/17 08:56:41;;;;;;;10.65;2.20;;;;;;;;;;5018796;28;20021;-70
2023/05/17 08:59:08;;;;;;;8.70;1.98;;;;;;;;;;5018091;28;20360;-70
2023/05/17 09:01:33;;;;;;;16.05;2.45;;;;;;;;;;5023067;28;20028;-70
2023/05/17 09:03:59;;;;;;;12.15;2.20;;;;;;;;;;5012552;28;20034;-70
2023/05/17 09:06:24;;;;;;;8.80;2.33;;;;;;;;;;5017419;28;20037;-70
2023/05/17 09:08:53;;;;;;;13.05;2.42;;;;;;;;;;5012361;28;20017;-70
2023/05/17 09:11:28;;;;;;;9.95;2.38;;;;;;;;;;5024287;28;20487;-70
2023/05/17 09:13:56;;;;;;;9.77;2.15;;;;;;;;;;5006576;28;20033;-70
2023/05/17 09:16:21;;;;;;;10.38;2.10;;;;;;;;;;5017000;28;20552;-70
2023/05/17 09:18:54;;;;;;;11.15;2.25;;;;;;;;;;5011155;28;20072;-70
2023/05/17 09:21:19;;;;;;;8.15;2.03;;;;;;;;;;5008779;28;20428;-70
2023/05/17 09:23:45;;;;;;;19.00;2.30;;;;;;;;;;5011634;28;20026;-70
2023/05/17 09:26:12;;;;;;;7.97;2.00;;;;;;;;;;5021906;28;20029;-70
2023/05/17 09:28:39;;;;;;;7.60;1.77;;;;;;;;;;5023814;28;20083;-71
2023/05/17 09:31:04;;;;;;;17.98;1.88;;;;;;;;;;5018097;28;20163;-71
2023/05/17 09:33:30;;;;;;;13.30;3.00;;;;;;;;;;5016536;28;20478;-71
2023/05/17 09:35:55;;;;;;;10.97;2.20;;;;;;;;;;5018556;28;20493;-71
2023/05/17 09:38:24;;;;;;;9.95;2.45;;;;;;;;;;5011997;28;20022;-70
2023/05/17 09:40:49;;;;;;;11.00;2.35;;;;;;;;;;5007531;28;20040;-70
2023/05/17 09:43:15;;;;;;;13.63;2.53;;;;;;;;;;5009409;28;20026;-70
2023/05/17 09:45:40;;;;;;;8.80;1.92;;;;;;;;;;5011907;28;20025;-71
2023/05/17 09:48:15;;;;;;;10.90;2.10;;;;;;;;;;5012787;28;20025;-71
2023/05/17 09:50:44;;;;;;;11.43;2.40;;;;;;;;;;5024779;28;20017;-71
2023/05/17 09:53:28;;;;;;;17.45;2.25;;;;;;;;;;5018822;28;20120;-71
2023/05/17 09:55:54;;;;;;;8.07;2.03;;;;;;;;;;5019374;28;20748;-71
2023/05/17 09:58:20;;;;;;;11.48;1.98;;;;;;;;;;5024194;28;20030;-71
2023/05/17 10:00:46;;;;;;;10.93;1.50;;;;;;;;;;5025540;28;20071;-71
2023/05/17 10:03:12;;;;;;;11.63;3.15;;;;;;;;;;5025387;28;20112;-71
2023/05/17 10:05:39;;;;;;;13.20;2.15;;;;;;;;;;5030908;28;20100;-71
2023/05/17 10:08:04;;;;;;;13.88;1.52;;;;;;;;;;5016463;28;20375;-71
2023/05/17 10:10:30;;;;;;;9.90;1.83;;;;;;;;;;5017268;28;20030;-71
2023/05/17 10:12:56;;;;;;;8.32;1.50;;;;;;;;;;5023416;28;20025;-70
2023/05/17 10:15:22;;;;;;;11.10;2.30;;;;;;;;;;5029006;28;20029;-71
2023/05/17 10:17:48;;;;;;;13.00;2.03;;;;;;;;;;5023641;28;20025;-71
2023/05/17 10:20:16;;;;;;;9.63;2.05;;;;;;;;;;5022602;28;20348;-71
2023/05/17 10:22:41;;;;;;;7.55;1.55;;;;;;;;;;5023109;28;20029;-71
2023/05/17 10:25:06;;;;;;;11.43;1.98;;;;;;;;;;5018428;28;20048;-71
2023/05/17 10:27:32;;;;;;;10.38;2.08;;;;;;;;;;5018330;28;20026;-71
2023/05/17 10:29:58;;;;;;;10.95;1.73;;;;;;;;;;5022809;28;20018;-71
2023/05/17 10:32:25;;;;;;;7.75;1.98;;;;;;;;;;5032016;28;20585;-71
2023/05/17 10:34:52;;;;;;;9.88;2.35;;;;;;;;;;5025101;28;20019;-71
2023/05/17 10:37:18;;;;;;;13.48;2.38;;;;;;;;;;5025866;28;20456;-71
2023/05/17 10:39:45;;;;;;;8.88;1.73;;;;;;;;;;5009864;28;20014;-71
2023/05/17 10:42:12;;;;;;;12.13;2.08;;;;;;;;;;5023343;28;20024;-71
2023/05/17 10:44:37;;;;;;;11.65;1.70;;;;;;;;;;5021225;28;20032;-71
2023/05/17 10:47:02;;;;;;;10.00;2.00;;;;;;;;;;5014866;28;20018;-71
2023/05/17 10:49:28;;;;;;;12.63;2.13;;;;;;;;;;5015406;28;20786;-71
2023/05/17 10:51:55;;;;;;;5.75;1.95;;;;;;;;;;5026945;28;20021;-71
2023/05/17 10:54:32;;;;;;;11.13;1.50;;;;;;;;;;5024248;28;20040;-71
2023/05/17 10:57:00;;;;;;;10.75;1.85;;;;;;;;;;5015005;28;20056;-71
2023/05/17 10:59:26;;;;;;;11.50;2.83;;;;;;;;;;5017173;28;20060;-71
2023/05/17 11:02:05;;;;;;;9.80;2.25;;;;;;;;;;5020699;28;20075;-71
2023/05/17 11:04:30;;;;;;;6.93;1.85;;;;;;;;;;5015528;28;20506;-71
2023/05/17 11:07:15;;;;;;;14.07;1.90;;;;;;;;;;5020329;28;20022;-71
2023/05/17 11:09:41;;;;;;;15.02;2.03;;;;;;;;;;5018886;28;20026;-71
2023/05/17 11:12:07;;;;;;;10.00;1.80;;;;;;;;;;5016313;28;20024;-71
2023/05/17 11:14:43;;;;;;;17.58;2.75;;;;;;;;;;5017218;28;20391;-71
2023/05/17 11:17:12;;;;;;;8.80;2.00;;;;;;;;;;5017710;28;20484;-71
2023/05/17 11:19:37;;;;;;;7.23;2.00;;;;;;;;;;5023321;28;20747;-71
2023/05/17 11:22:09;;;;;;;12.60;1.60;;;;;;;;;;5016559;28;20317;-71
2023/05/17 11:24:36;;;;;;;5.70;1.40;;;;;;;;;;5015606;28;20808;-71
2023/05/17 11:27:03;;;;;;;9.20;2.20;;;;;;;;;;5019638;28;20353;-71
2023/05/17 11:29:29;;;;;;;10.65;1.95;;;;;;;;;;5017374;28;20109;-71
2023/05/17 11:31:55;;;;;;;6.88;2.22;;;;;;;;;;5027488;28;20471;-71
2023/05/17 11:34:22;;;;;;;7.78;1.40;;;;;;;;;;5023738;28;20029;-71
2023/05/17 11:36:48;;;;;;;13.15;2.40;;;;;;;;;;5028126;28;20045;-71
2023/05/17 11:39:14;;;;;;;8.85;1.75;;;;;;;;;;5013720;28;20099;-71
2023/05/17 11:41:46;;;;;;;13.50;1.85;;;;;;;;;;5020275;28;20510;-71
2023/05/17 11:44:12;;;;;;;11.45;2.05;;;;;;;;;;5016392;28;20111;-71
2023/05/17 11:46:38;;;;;;;18.83;2.28;;;;;;;;;;5031359;28;20057;-71
2023/05/17 11:49:05;;;;;;;12.82;1.83;;;;;;;;;;5021608;28;20018;-71
2023/05/17 11:51:30;;;;;;;14.93;1.92;;;;;;;;;;5014931;28;20030;-71
2023/05/17 11:53:56;;;;;;;14.38;1.70;;;;;;;;;;5018593;28;20140;-71
2023/05/17 11:56:25;;;;;;;9.15;2.20;;;;;;;;;;5029862;28;20032;-71
2023/05/17 11:58:51;;;;;;;10.05;2.53;;;;;;;;;;5020304;28;20112;-71
2023/05/17 12:01:16;;;;;;;10.63;1.88;;;;;;;;;;5012942;28;20033;-71
2023/05/17 12:03:41;;;;;;;5.47;1.30;;;;;;;;;;5023214;28;20025;-71
2023/05/17 12:06:08;;;;;;;13.60;1.77;;;;;;;;;;5023117;28;20497;-71
2023/05/17 12:08:34;;;;;;;9.18;1.83;;;;;;;;;;5019992;28;20026;-71
2023/05/17 12:11:00;;;;;;;9.10;1.67;;;;;;;;;;5012010;28;20647;-71
2023/05/17 12:13:29;;;;;;;7.65;1.90;;;;;;;;;;5011834;28;20025;-71
2023/05/17 12:15:58;;;;;;;12.95;1.85;;;;;;;;;;5013966;28;20052;-71
2023/05/17 12:18:37;;;;;;;9.02;1.63;;;;;;;;;;5026962;28;20483;-71
2023/05/17 12:21:02;;;;;;;5.28;1.30;;;;;;;;;;5013392;28;20029;-71
2023/05/17 12:23:32;;;;;;;9.93;1.98;;;;;;;;;;5014607;28;20057;-71
2023/05/17 12:26:15;;;;;;;11.63;1.95;;;;;;;;;;5030268;28;20478;-71
2023/05/17 12:28:43;;;;;;;12.70;2.20;;;;;;;;;;5024943;28;20025;-71
2023/05/17 12:31:13;;;;;;;11.93;1.83;;;;;;;;;;5013594;28;20017;-71
2023/05/17 12:33:40;;;;;;;10.20;1.95;;;;;;;;;;5015668;28;20041;-71
2023/05/17 12:36:06;;;;;;;10.63;1.85;;;;;;;;;;5012000;28;20060;-71
2023/05/17 12:38:32;;;;;;;8.18;2.08;;;;;;;;;;5019584;28;20030;-71
2023/05/17 12:41:01;;;;;;;12.65;2.42;;;;;;;;;;5021831;28;20027;-71
2023/05/17 12:43:28;;;;;;;9.32;1.73;;;;;;;;;;5028214;28;20113;-72
2023/05/17 12:45:55;;;;;;;9.95;1.50;;;;;;;;;;5025953;28;20022;-71
2023/05/17 12:48:22;;;;;;;11.52;1.40;;;;;;;;;;5029077;28;20013;-71
2023/05/17 12:50:50;;;;;;;11.20;1.60;;;;;;;;;;5023940;28;20018;-71
2023/05/17 12:53:15;;;;;;;11.35;1.75;;;;;;;;;;5028059;28;20065;-71
2023/05/17 12:55:40;;;;;;;4.85;1.23;;;;;;;;;;5021767;28;20520;-71
2023/05/17 12:58:05;;;;;;;13.20;1.50;;;;;;;;;;5026127;28;20390;-72
2023/05/17 13:00:31;;;;;;;9.83;1.23;;;;;;;;;;5029450;28;20029;-72
2023/05/17 13:02:56;;;;;;;13.20;2.15;;;;;;;;;;5022696;28;20664;-72
2023/05/17 13:05:21;;;;;;;11.63;1.80;;;;;;;;;;5029060;28;20064;-72
2023/05/17 13:07:46;;;;;;;13.52;1.80;;;;;;;;;;5025379;28;20822;-72
2023/05/17 13:10:22;;;;;;;13.50;1.77;;;;;;;;;;5028830;28;20021;-72
2023/05/17 13:12:57;;;;;;;4.68;1.50;;;;;;;;;;5023048;28;20739;-72
2023/05/17 13:15:26;;;;;;;8.43;1.80;;;;;;;;;;5028187;28;20029;-72
2023/05/17 13:17:51;;;;;;;12.65;2.10;;;;;;;;;;5026678;28;20021;-72
2023/05/17 13:20:17;;;;;;;10.85;1.75;;;;;;;;;;5026014;28;20033;-72
2023/05/17 13:22:45;;;;;;;8.20;1.90;;;;;;;;;;5028628;28;20014;-72
2023/05/17 13:25:11;;;;;;;7.30;1.70;;;;;;;;;;5027350;28;20049;-72
2023/05/17 13:27:36;;;;;;;9.50;1.97;;;;;;;;;;5026776;28;20442;-72
2023/05/17 13:30:01;;;;;;;11.33;1.60;;;;;;;;;;5028277;28;20829;-72
2023/05/17 13:32:27;;;;;;;16.00;2.40;;;;;;;;;;5033506;28;20244;-72
2023/05/17 13:34:52;;;;;;;16.17;2.70;;;;;;;;;;5027985;28;20391;-72
2023/05/17 13:37:17;;;;;;;6.07;2.33;;;;;;;;;;5029867;28;20367;-72
2023/05/17 13:39:42;;;;;;;11.23;2.00;;;;;;;;;;5032792;28;20045;-72
2023/05/17 13:42:08;;;;;;;6.53;2.00;;;;;;;;;;5033393;28;20266;-72
2023/05/17 13:44:33;;;;;;;16.42;1.90;;;;;;;;;;5029258;28;20287;-72
2023/05/17 13:46:58;;;;;;;8.13;2.45;;;;;;;;;;5032336;28;20104;-72
2023/05/17 13:49:24;;;;;;;5.23;1.17;;;;;;;;;;5029566;28;20017;-72
2023/05/17 13:51:49;;;;;;;5.60;1.10;;;;;;;;;;5031536;28;20833;-72
2023/05/17 13:54:14;;;;;;;5.60;2.17;;;;;;;;;;5031852;28;20021;-72
2023/05/17 13:56:40;;;;;;;11.10;2.00;;;;;;;;;;5030038;28;20281;-72
2023/05/17 13:59:05;;;;;;;5.40;1.50;;;;;;;;;;5031012;28;20744;-72
2023/05/17 14:01:30;;;;;;;7.80;1.63;;;;;;;;;;5020925;28;20427;-72
2023/05/17 14:03:56;;;;;;;7.82;1.67;;;;;;;;;;5029058;28;20334;-72
2023/05/17 14:06:21;;;;;;;7.07;1.70;;;;;;;;;;5027450;28;20018;-72
2023/05/17 14:08:46;;;;;;;7.60;1.57;;;;;;;;;;5027730;28;20182;-72
2023/05/17 14:11:12;;;;;;;10.93;2.20;;;;;;;;;;5036023;28;20291;-72
2023/05/17 14:13:37;;;;;;;11.07;1.77;;;;;;;;;;5026500;28;20040;-72
2023/05/17 14:16:02;;;;;;;6.77;1.87;;;;;;;;;;5026711;28;20271;-72
2023/05/17 14:18:27;;;;;;;11.02;1.88;;;;;;;;;;5028957;28;20752;-72
2023/05/17 14:20:53;;;;;;;6.50;1.80;;;;;;;;;;5029435;28;20079;-72
2023/05/17 14:23:18;;;;;;;8.07;1.75;;;;;;;;;;5031563;28;20286;-72
2023/05/17 14:25:43;;;;;;;7.90;1.70;;;;;;;;;;5030450;28;20104;-72
2023/05/17 14:28:09;;;;;;;13.15;2.10;;;;;;;;;;5033989;28;20530;-72